createdAt,value
2022-12-18T13:58:47.083Z,42.60
2022-12-18T14:01:25.881Z,35.55
2022-12-18T14:04:14.133Z,53.20
2022-12-18T14:06:44.474Z,43.80
2022-12-18T14:09:21.387Z,38.30
2022-12-18T14:11:52.174Z,36.40
2022-12-18T14:14:24.919Z,43.10
2022-12-18T14:16:57.425Z,38.25
2022-12-18T14:19:27.090Z,37.45
2022-12-18T14:21:56.232Z,31.60
2022-12-18T14:24:25.415Z,34.92
2022-12-18T14:26:54.991Z,35.30
2022-12-18T14:29:28.043Z,35.20
2022-12-18T14:32:18.883Z,34.35
2022-12-18T14:34:49.533Z,34.50
2022-12-18T14:37:23.085Z,32.90
2022-12-18T14:40:00.120Z,31.40
2022-12-18T14:42:31.644Z,29.45
2022-12-18T14:45:42.509Z,29.85
2022-12-18T14:48:22.807Z,29.55
2022-12-18T14:51:01.499Z,22.00
2022-12-18T14:53:36.859Z,24.80
2022-12-18T14:56:15.053Z,18.30
2022-12-18T14:58:49.139Z,14.02
2022-12-18T15:01:28.308Z,16.10
2022-12-18T15:03:59.196Z,20.70
2022-12-18T15:06:34.843Z,14.52
2022-12-18T15:09:06.478Z,15.02
2022-12-18T15:11:41.666Z,15.90
2022-12-18T15:14:44.061Z,11.90
2022-12-18T15:17:21.774Z,12.88
2022-12-18T15:19:54.654Z,13.00
2022-12-18T15:22:27.791Z,13.32
2022-12-18T15:24:57.913Z,12.00
2022-12-18T15:27:36.888Z,15.63
2022-12-18T15:30:20.802Z,16.98
2022-12-18T15:32:52.886Z,14.85
2022-12-18T15:35:23.949Z,4.70
2022-12-18T15:37:54.939Z,13.95
2022-12-18T15:40:25.999Z,15.70
2022-12-18T15:43:15.108Z,13.95
2022-12-18T15:45:44.365Z,15.70
2022-12-18T15:48:23.211Z,12.25
2022-12-18T15:50:54.402Z,11.38
2022-12-18T15:53:23.818Z,13.77
2022-12-18T15:56:10.117Z,12.60
2022-12-18T15:58:39.797Z,44.22
2022-12-18T16:01:11.747Z,12.52
2022-12-18T16:03:42.804Z,12.48
2022-12-18T16:06:13.273Z,11.68
2022-12-18T16:08:42.378Z,9.52
2022-12-18T16:11:42.549Z,10.98
2022-12-18T16:14:20.202Z,13.13
2022-12-18T16:16:51.927Z,12.73
2022-12-18T16:19:23.893Z,13.30
2022-12-18T16:21:54.969Z,12.98
2022-12-18T16:24:25.932Z,12.27
2022-12-18T16:26:56.053Z,13.48
2022-12-18T16:29:28.824Z,16.60
2022-12-18T16:31:58.487Z,12.90
2022-12-18T16:34:34.861Z,14.60
2022-12-18T16:37:06.617Z,18.88
2022-12-18T16:39:36.427Z,17.58
2022-12-18T16:42:07.030Z,18.83
2022-12-18T16:44:36.260Z,20.52
2022-12-18T16:47:08.283Z,17.42
2022-12-18T16:49:42.324Z,16.77
2022-12-18T16:52:11.522Z,17.75
2022-12-18T16:54:40.616Z,15.15
2022-12-18T16:57:11.727Z,15.55
2022-12-18T16:59:41.003Z,14.98
2022-12-18T17:02:17.235Z,13.07
2022-12-18T17:04:50.748Z,12.57
2022-12-18T17:07:19.955Z,10.90
2022-12-18T17:09:50.663Z,8.60
2022-12-18T17:12:20.032Z,13.35
2022-12-18T17:14:49.299Z,10.98
2022-12-18T17:17:21.400Z,10.25
2022-12-18T17:19:53.644Z,13.55
2022-12-18T17:22:23.856Z,14.52
2022-12-18T17:24:53.244Z,14.57
2022-12-18T17:27:22.579Z,14.65
2022-12-18T17:29:52.004Z,11.82
2022-12-18T17:32:21.715Z,14.95
2022-12-18T17:34:52.396Z,16.10
2022-12-18T17:37:21.564Z,13.95
2022-12-18T17:39:50.805Z,14.68
2022-12-18T17:42:20.061Z,13.35
2022-12-18T17:44:49.304Z,10.40
2022-12-18T17:47:18.822Z,11.90
2022-12-18T17:49:48.534Z,10.30
2022-12-18T17:52:19.450Z,11.43
2022-12-18T17:54:48.922Z,13.13
2022-12-18T17:57:18.401Z,11.38
2022-12-18T17:59:47.673Z,11.90
2022-12-18T18:02:17.140Z,10.77
2022-12-18T18:04:48.988Z,12.65
2022-12-18T18:07:21.283Z,14.43
2022-12-18T18:09:55.674Z,13.88
2022-12-18T18:12:45.578Z,14.57
2022-12-18T18:15:22.095Z,11.20
2022-12-18T18:17:57.534Z,12.77
2022-12-18T18:20:34.525Z,13.50
2022-12-18T18:23:05.411Z,11.57
2022-12-18T18:25:38.258Z,15.20
2022-12-18T18:28:07.638Z,10.82
2022-12-18T18:30:38.867Z,11.63
2022-12-18T18:33:11.967Z,11.95
2022-12-18T18:35:53.824Z,12.93
2022-12-18T18:38:25.294Z,12.48
2022-12-18T18:41:00.717Z,13.05
2022-12-18T18:43:30.526Z,15.25
2022-12-18T18:46:00.138Z,11.82
2022-12-18T18:48:32.773Z,14.02
2022-12-18T18:51:06.348Z,12.80
2022-12-18T18:53:40.514Z,11.57
2022-12-18T18:56:56.205Z,9.48
2022-12-18T18:59:01.399Z,12.98
2022-12-18T19:01:30.863Z,10.65
2022-12-18T19:04:00.283Z,9.57
2022-12-18T19:06:30.764Z,11.38
2022-12-18T19:09:04.884Z,10.05
2022-12-18T19:11:50.870Z,11.30
2022-12-18T19:14:21.631Z,11.32
2022-12-18T19:16:51.027Z,10.73
2022-12-18T19:19:21.423Z,9.45
2022-12-18T19:21:51.071Z,10.80
2022-12-18T19:24:22.641Z,10.77
2022-12-18T19:26:52.615Z,8.80
2022-12-18T19:29:25.842Z,10.15
2022-12-18T19:31:55.096Z,9.50
2022-12-18T19:34:24.317Z,10.98
2022-12-18T19:36:59.504Z,11.52
2022-12-18T19:41:59.778Z,10.43
2022-12-18T19:44:29.010Z,10.50
2022-12-18T19:46:58.231Z,9.57
2022-12-18T19:49:27.425Z,13.35
2022-12-18T19:51:56.633Z,9.85
2022-12-18T19:54:25.937Z,10.55
2022-12-18T19:56:57.152Z,12.25
2022-12-18T19:59:26.390Z,11.43
2022-12-18T20:01:55.969Z,9.45
2022-12-18T20:04:25.317Z,12.00
2022-12-18T20:06:55.746Z,12.98
2022-12-18T20:09:25.225Z,12.15
2022-12-18T20:11:56.998Z,9.32
2022-12-18T20:14:26.370Z,10.60
2022-12-18T20:16:55.767Z,10.50
2022-12-18T20:19:25.789Z,9.15
2022-12-18T20:21:56.103Z,9.95
2022-12-18T20:24:25.287Z,10.55
2022-12-18T20:26:56.083Z,12.75
2022-12-18T20:29:25.320Z,10.93
2022-12-18T20:31:54.725Z,9.75
2022-12-18T20:34:24.520Z,10.32
2022-12-18T20:36:54.346Z,9.88
2022-12-18T20:39:24.226Z,9.77
2022-12-18T20:41:53.957Z,9.73
2022-12-18T20:44:24.736Z,9.82
2022-12-18T20:46:55.691Z,10.60
2022-12-18T20:49:25.941Z,10.43
2022-12-18T20:51:56.650Z,9.85
2022-12-18T20:54:28.075Z,9.65
2022-12-18T20:56:57.540Z,11.40
2022-12-18T20:59:28.362Z,13.15
2022-12-18T21:01:57.856Z,10.35
2022-12-18T21:04:27.501Z,9.32
2022-12-18T21:07:02.313Z,9.00
2022-12-18T21:09:38.285Z,9.52
2022-12-18T21:14:55.903Z,8.23
2022-12-18T21:17:25.468Z,5.63
2022-12-18T21:19:56.444Z,7.22
2022-12-18T21:22:26.945Z,7.85
2022-12-18T21:24:56.471Z,7.82
2022-12-18T21:27:25.848Z,9.40
2022-12-18T21:29:56.756Z,8.77
2022-12-18T21:32:26.150Z,7.25
2022-12-18T21:34:59.129Z,8.05
2022-12-18T21:37:28.466Z,8.50
2022-12-18T21:39:57.658Z,7.85
2022-12-18T21:42:43.810Z,9.25
2022-12-18T21:45:15.332Z,8.73
2022-12-18T21:47:44.596Z,8.45
2022-12-18T21:50:13.810Z,9.07
2022-12-18T21:52:43.385Z,8.90
2022-12-18T21:55:12.803Z,7.53
2022-12-18T21:57:42.101Z,9.05
2022-12-18T22:00:18.222Z,8.35
2022-12-18T22:03:17.007Z,9.30
2022-12-18T22:05:39.713Z,8.90
2022-12-18T22:08:09.071Z,8.25
2022-12-18T22:10:38.633Z,9.48
2022-12-18T22:13:08.601Z,9.00
2022-12-18T22:15:39.253Z,9.75
2022-12-18T22:18:08.481Z,9.13
2022-12-18T22:20:37.661Z,7.47
2022-12-18T22:23:06.860Z,8.70
2022-12-18T22:25:39.767Z,10.43
2022-12-18T22:28:26.155Z,7.93
2022-12-18T22:30:59.087Z,10.50
2022-12-18T22:33:29.345Z,7.55
2022-12-18T22:35:58.564Z,8.98
2022-12-18T22:38:27.736Z,9.38
2022-12-18T22:40:57.770Z,8.43
2022-12-18T22:43:26.953Z,8.77
2022-12-18T22:45:57.716Z,8.93
2022-12-18T22:48:26.877Z,9.48
2022-12-18T22:50:59.698Z,8.85
2022-12-18T22:53:29.006Z,8.90
2022-12-18T22:56:02.816Z,10.95
2022-12-18T22:58:32.573Z,9.23
2022-12-18T23:01:03.191Z,8.30
2022-12-18T23:03:34.409Z,9.98
2022-12-18T23:06:08.011Z,10.30
2022-12-18T23:08:37.267Z,9.75
2022-12-18T23:11:07.465Z,11.43
2022-12-18T23:13:37.574Z,8.45
2022-12-18T23:16:10.750Z,8.60
2022-12-18T23:18:40.267Z,10.77
2022-12-18T23:21:11.932Z,8.32
2022-12-18T23:23:42.521Z,10.00
2022-12-18T23:26:13.846Z,10.07
2022-12-18T23:28:43.544Z,8.77
2022-12-18T23:31:17.421Z,9.18
2022-12-18T23:33:47.799Z,7.75
2022-12-18T23:36:18.493Z,9.05
2022-12-18T23:38:51.557Z,10.70
2022-12-18T23:41:22.592Z,9.48
2022-12-18T23:43:52.013Z,11.35
2022-12-18T23:46:24.527Z,14.52
2022-12-18T23:48:54.576Z,11.63
2022-12-18T23:51:26.176Z,13.77
2022-12-18T23:53:57.364Z,11.85
2022-12-18T23:56:27.406Z,12.00
2022-12-18T23:58:56.830Z,12.88
